Time;durP1;ratioP1;P1;durP2;ratioP2;P2;SDS_P1;SDS_P2;PMS_P1;PMS_P2;Temp;Humidity;BMP_temperature;BMP_pressure;BME280_temperature;BME280_humidity;BME280_pressure;Samples;Min_cycle;Max_cycle;Signal;HPM_P1;HPM_P2
2024/04/25 00:02:19;;;;;;;3.67;3.37;;;;;;;5.07;100.00;98464.00;6629138;21;20236;-79
2024/04/25 00:04:49;;;;;;;3.73;3.30;;;;;;;5.07;100.00;98461.34;6586020;21;20228;-79
2024/04/25 00:07:17;;;;;;;4.77;4.07;;;;;;;5.06;100.00;98454.41;6585597;21;20259;-80
2024/04/25 00:09:45;;;;;;;4.00;3.60;;;;;;;5.07;100.00;98453.38;6628734;21;20220;-79
2024/04/25 00:12:12;;;;;;;3.60;3.30;;;;;;;5.09;100.00;98451.31;6586353;21;20236;-80
2024/04/25 00:14:41;;;;;;;4.17;3.77;;;;;;;5.05;100.00;98447.44;6633030;21;20269;-79
2024/04/25 00:17:08;;;;;;;4.30;3.67;;;;;;;5.07;100.00;98446.22;6586338;21;20326;-80
2024/04/25 00:19:36;;;;;;;3.90;3.50;;;;;;;5.11;100.00;98443.97;6586423;21;20232;-79
2024/04/25 00:22:05;;;;;;;3.87;3.47;;;;;;;5.10;100.00;98437.00;6586406;21;20271;-79
2024/04/25 00:24:32;;;;;;;3.53;3.23;;;;;;;5.12;100.00;98435.78;6586208;21;20262;-79
2024/04/25 00:27:00;;;;;;;3.43;3.13;;;;;;;5.07;100.00;98440.91;6586410;21;20311;-79
2024/04/25 00:29:28;;;;;;;3.87;3.37;;;;;;;5.03;100.00;98439.72;6586306;21;20341;-79
2024/04/25 00:31:56;;;;;;;3.60;3.30;;;;;;;5.02;100.00;98445.22;6585412;21;20244;-79
2024/04/25 00:34:24;;;;;;;3.60;3.30;;;;;;;4.98;100.00;98442.19;6585694;21;20672;-79
2024/04/25 00:36:52;;;;;;;3.53;3.30;;;;;;;5.00;100.00;98442.78;6585379;21;20231;-80
2024/04/25 00:39:20;;;;;;;3.50;3.20;;;;;;;4.97;100.00;98443.22;6586193;21;20287;-79
2024/04/25 00:41:50;;;;;;;3.83;3.53;;;;;;;4.96;100.00;98444.25;6586111;21;20271;-81
2024/04/25 00:44:18;;;;;;;3.60;3.30;;;;;;;4.91;100.00;98448.53;6586960;21;20229;-80
2024/04/25 00:46:47;;;;;;;4.30;3.20;;;;;;;4.87;100.00;98448.97;6629526;21;20224;-81
2024/04/25 00:49:16;;;;;;;3.60;3.27;;;;;;;4.88;100.00;98441.84;6585910;21;20545;-80
2024/04/25 00:51:44;;;;;;;3.67;3.37;;;;;;;4.83;100.00;98445.13;6629371;21;20267;-80
2024/04/25 00:54:11;;;;;;;3.50;3.20;;;;;;;4.82;100.00;98443.50;6585682;21;20337;-81
2024/04/25 00:56:41;;;;;;;3.67;3.37;;;;;;;4.86;100.00;98447.34;6629289;21;20271;-79
2024/04/25 00:59:11;;;;;;;4.00;3.60;;;;;;;4.83;100.00;98447.78;6543432;21;20228;-79
2024/04/25 01:01:42;;;;;;;3.70;3.40;;;;;;;4.91;100.00;98444.06;6543478;21;20284;-79
2024/04/25 01:04:09;;;;;;;7.60;4.20;;;;;;;4.94;100.00;98456.09;6586245;21;20711;-79
2024/04/25 01:06:37;;;;;;;3.70;3.40;;;;;;;4.94;100.00;98448.97;6628902;21;20239;-79
2024/04/25 01:09:07;;;;;;;3.50;3.20;;;;;;;4.91;100.00;98449.38;6585911;21;20258;-80
2024/04/25 01:11:34;;;;;;;3.67;3.37;;;;;;;4.93;100.00;98452.63;6583550;21;20787;-80
2024/04/25 01:14:05;;;;;;;3.70;3.40;;;;;;;4.86;100.00;98447.34;6628167;21;20327;-80
2024/04/25 01:16:33;;;;;;;3.43;3.13;;;;;;;4.79;100.00;98448.41;6584662;21;20228;-80
2024/04/25 01:19:00;;;;;;;4.00;3.60;;;;;;;4.77;100.00;98456.56;6584149;21;20228;-82
2024/04/25 01:21:28;;;;;;;3.50;3.20;;;;;;;4.76;100.00;98454.94;6541145;21;20266;-82
2024/04/25 01:23:58;;;;;;;3.53;3.23;;;;;;;4.74;100.00;98458.84;6627627;21;20403;-79
2024/04/25 01:26:26;;;;;;;3.37;3.07;;;;;;;4.76;100.00;98456.78;6584400;21;20757;-80
2024/04/25 01:28:55;;;;;;;3.63;3.33;;;;;;;4.72;100.00;98455.56;6584127;21;20729;-80
2024/04/25 01:31:23;;;;;;;3.33;3.03;;;;;;;4.65;100.00;98455.63;6626667;21;20602;-79
2024/04/25 01:33:52;;;;;;;3.80;3.50;;;;;;;4.64;100.00;98453.97;6584689;21;20254;-81
2024/04/25 01:36:19;;;;;;;3.97;3.57;;;;;;;4.62;100.00;98455.22;6584475;21;20228;-81
2024/04/25 01:38:46;;;;;;;3.70;3.40;;;;;;;4.68;100.00;98446.41;6627971;21;20258;-81
2024/04/25 01:41:14;;;;;;;3.30;3.00;;;;;;;4.70;100.00;98455.81;6586017;21;20230;-80
2024/04/25 01:43:43;;;;;;;2.90;2.70;;;;;;;4.71;100.00;98456.63;6586740;21;20261;-80
2024/04/25 01:46:11;;;;;;;3.47;3.17;;;;;;;4.77;100.00;98451.28;6585591;21;20240;-80
2024/04/25 01:48:45;;;;;;;3.40;3.10;;;;;;;4.79;100.00;98449.22;6586462;21;20303;-80
2024/04/25 01:51:13;;;;;;;3.50;3.07;;;;;;;4.84;100.00;98445.94;6585556;21;20701;-80
2024/04/25 01:53:44;;;;;;;3.57;3.27;;;;;;;4.77;100.00;98453.09;6584830;21;20241;-80
2024/04/25 01:56:12;;;;;;;3.93;2.97;;;;;;;4.83;100.00;98446.97;6585245;21;20278;-82
2024/04/25 01:58:42;;;;;;;3.17;2.80;;;;;;;4.80;100.00;98444.75;6585662;21;20311;-81
2024/04/25 02:01:10;;;;;;;3.40;3.10;;;;;;;4.84;100.00;98443.28;6628952;21;20321;-81
2024/04/25 02:03:39;;;;;;;3.40;3.10;;;;;;;4.91;100.00;98441.41;6585095;21;20224;-81
2024/04/25 02:06:12;;;;;;;3.20;3.00;;;;;;;4.82;100.00;98447.97;6586642;21;20258;-80
2024/04/25 02:08:40;;;;;;;3.60;3.30;;;;;;;4.83;100.00;98439.81;6585148;21;20229;-81
2024/04/25 02:11:08;;;;;;;3.50;3.20;;;;;;;4.83;100.00;98442.47;6584514;21;20275;-80
2024/04/25 02:13:36;;;;;;;3.70;3.10;;;;;;;4.85;100.00;98444.91;6585727;21;20235;-80
2024/04/25 02:16:04;;;;;;;3.37;3.07;;;;;;;4.76;100.00;98448.81;6585262;21;20333;-79
2024/04/25 02:18:32;;;;;;;3.53;3.23;;;;;;;4.74;100.00;98442.91;6628646;21;20232;-80
2024/04/25 02:26:37;;;;;;;3.43;3.13;;;;;;;4.64;100.00;98456.63;6628577;21;20701;-81
2024/04/25 02:29:05;;;;;;;3.70;3.40;;;;;;;4.62;100.00;98449.91;6584660;21;20267;-80
2024/04/25 02:31:37;;;;;;;3.63;3.33;;;;;;;4.60;100.00;98459.91;6627622;21;20291;-80
2024/04/25 02:34:05;;;;;;;3.60;3.30;;;;;;;4.53;100.00;98451.16;6585780;21;20581;-81
2024/04/25 02:36:36;;;;;;;4.73;3.10;;;;;;;4.53;100.00;98453.81;6541468;21;20673;-81
2024/04/25 02:39:09;;;;;;;3.60;3.30;;;;;;;4.41;100.00;98451.00;6541558;21;20232;-81
2024/04/25 02:41:37;;;;;;;3.60;3.30;;;;;;;4.40;100.00;98455.47;6627858;21;20232;-80
2024/04/25 02:44:05;;;;;;;3.97;3.47;;;;;;;4.38;100.00;98462.84;6627515;21;20248;-82
2024/04/25 02:46:36;;;;;;;3.60;3.30;;;;;;;4.29;100.00;98458.78;6584650;21;20234;-80
2024/04/25 02:49:05;;;;;;;3.47;3.17;;;;;;;4.26;100.00;98466.31;6584152;21;20426;-80
2024/04/25 02:51:35;;;;;;;3.70;3.40;;;;;;;4.23;100.00;98470.22;6584119;21;20230;-79
2024/04/25 02:54:03;;;;;;;3.60;3.30;;;;;;;4.17;100.00;98464.91;6583889;21;20330;-80
2024/04/25 02:56:32;;;;;;;3.23;2.90;;;;;;;4.13;100.00;98482.25;6584075;21;20240;-80
2024/04/25 02:59:00;;;;;;;3.40;3.10;;;;;;;4.13;100.00;98479.59;6587388;21;20223;-80
2024/04/25 03:01:28;;;;;;;3.60;3.30;;;;;;;4.05;100.00;98483.31;6630225;21;20236;-80
2024/04/25 03:03:56;;;;;;;3.77;3.47;;;;;;;4.05;100.00;98485.94;6586359;21;20267;-80
2024/04/25 03:06:27;;;;;;;3.60;3.30;;;;;;;4.07;100.00;98489.19;6629940;21;20224;-80
2024/04/25 03:08:56;;;;;;;3.10;2.90;;;;;;;4.07;100.00;98494.50;6632496;21;20228;-81
2024/04/25 03:11:24;;;;;;;4.17;3.50;;;;;;;4.03;100.00;98480.03;6630990;21;20235;-80
2024/04/25 03:13:52;;;;;;;3.73;3.43;;;;;;;4.04;100.00;98476.38;6630795;21;20270;-80
2024/04/25 03:16:20;;;;;;;3.50;3.20;;;;;;;4.03;100.00;98492.47;6586832;21;20262;-81
2024/04/25 03:18:48;;;;;;;3.50;3.20;;;;;;;4.01;100.00;98487.38;6587387;21;20235;-80
2024/04/25 03:21:17;;;;;;;3.70;3.40;;;;;;;4.01;100.00;98491.88;6586413;21;20293;-80
2024/04/25 03:23:45;;;;;;;3.93;3.53;;;;;;;4.02;100.00;98489.00;6587594;21;20334;-80
2024/04/25 03:26:12;;;;;;;3.63;3.33;;;;;;;4.01;100.00;98487.38;6542259;21;20756;-83
2024/04/25 03:28:41;;;;;;;3.83;3.53;;;;;;;3.95;100.00;98486.38;6587498;21;20727;-79
2024/04/25 03:31:10;;;;;;;3.53;3.23;;;;;;;3.91;100.00;98490.44;6587170;21;20227;-81
2024/04/25 03:33:37;;;;;;;3.23;2.93;;;;;;;3.88;100.00;98493.50;6543240;21;20286;-80
2024/04/25 03:36:06;;;;;;;3.53;3.23;;;;;;;3.92;100.00;98492.06;6544086;21;20275;-86
2024/04/25 03:38:38;;;;;;;3.70;3.40;;;;;;;3.90;100.00;98488.81;6586311;21;20278;-79
2024/04/25 03:41:16;;;;;;;3.43;3.13;;;;;;;3.89;100.00;98487.19;6630388;21;20328;-80
2024/04/25 03:43:44;;;;;;;4.13;3.40;;;;;;;3.83;100.00;98490.63;6587192;21;20322;-80
2024/04/25 03:46:13;;;;;;;3.97;3.20;;;;;;;3.91;100.00;98492.28;6587041;21;20236;-80
2024/04/25 03:48:40;;;;;;;3.43;3.13;;;;;;;3.84;100.00;98491.44;6586789;21;20235;-80
2024/04/25 03:51:09;;;;;;;3.97;3.57;;;;;;;3.75;100.00;98490.03;6630368;21;20302;-79
2024/04/25 03:53:37;;;;;;;3.53;3.23;;;;;;;3.68;100.00;98494.53;6586808;21;20236;-79
2024/04/25 03:56:05;;;;;;;3.60;3.30;;;;;;;3.62;100.00;98493.50;6587086;21;20284;-80
2024/04/25 03:58:34;;;;;;;3.77;3.27;;;;;;;3.58;100.00;98500.22;6586793;21;20229;-80
2024/04/25 04:01:02;;;;;;;3.60;3.30;;;;;;;3.62;100.00;98492.66;6587608;21;20240;-79
2024/04/25 04:03:30;;;;;;;3.53;3.23;;;;;;;3.54;100.00;98496.34;6587454;21;20231;-81
2024/04/25 04:05:59;;;;;;;3.63;3.33;;;;;;;3.51;100.00;98497.53;6587101;21;20705;-80
2024/04/25 04:08:27;;;;;;;5.27;3.27;;;;;;;3.50;100.00;98498.56;6587069;21;20232;-82
2024/04/25 04:10:55;;;;;;;3.50;3.20;;;;;;;3.47;100.00;98498.97;6587949;21;20719;-81
2024/04/25 04:13:24;;;;;;;3.77;3.47;;;;;;;3.48;100.00;98508.56;6586669;21;20333;-82
2024/04/25 04:15:51;;;;;;;3.83;3.40;;;;;;;3.50;100.00;98508.31;6586593;21;20280;-80
2024/04/25 04:18:19;;;;;;;4.07;3.70;;;;;;;3.48;100.00;98511.19;6543123;21;20240;-79
2024/04/25 04:20:50;;;;;;;3.70;3.40;;;;;;;3.60;100.00;98513.22;6542038;21;20255;-80
2024/04/25 04:23:19;;;;;;;3.90;3.60;;;;;;;3.63;100.00;98510.19;6588142;21;20266;-81
2024/04/25 04:25:47;;;;;;;3.87;3.57;;;;;;;3.67;100.00;98511.44;6543175;21;20274;-82
2024/04/25 04:28:20;;;;;;;3.83;3.50;;;;;;;3.67;100.00;98504.28;6630929;21;20227;-80
2024/04/25 04:30:49;;;;;;;5.30;4.00;;;;;;;3.69;100.00;98512.84;6544245;21;20232;-79
2024/04/25 04:33:17;;;;;;;4.70;3.80;;;;;;;3.86;100.00;98514.09;6542765;21;20287;-80
2024/04/25 04:35:46;;;;;;;4.87;3.63;;;;;;;3.98;100.00;98525.69;6586075;21;20232;-81
2024/04/25 04:38:13;;;;;;;6.10;3.80;;;;;;;4.09;100.00;98521.63;6585641;21;20375;-80
2024/04/25 04:40:41;;;;;;;4.03;3.67;;;;;;;4.19;100.00;98524.69;6585057;21;20709;-80
2024/04/25 04:43:10;;;;;;;4.10;3.70;;;;;;;4.34;100.00;98535.84;6586508;21;20228;-85
2024/04/25 04:45:40;;;;;;;5.67;3.90;;;;;;;4.53;100.00;98539.50;6629402;21;20252;-80
2024/04/25 04:48:07;;;;;;;3.80;3.50;;;;;;;4.74;100.00;98539.25;6542226;21;20232;-80
2024/04/25 04:50:45;;;;;;;4.10;3.40;;;;;;;4.99;100.00;98534.09;6549173;21;20235;-82
2024/04/25 04:53:14;;;;;;;3.53;3.23;;;;;;;5.26;100.00;98535.59;6586027;21;20253;-80
2024/04/25 04:55:45;;;;;;;3.93;3.63;;;;;;;5.53;100.00;98548.72;6545037;21;20228;-83
2024/04/25 04:58:12;;;;;;;3.53;3.23;;;;;;;5.76;100.00;98536.50;6585483;21;20262;-80
2024/04/25 05:00:40;;;;;;;3.73;3.43;;;;;;;6.06;100.00;98542.06;6629205;21;20768;-80
2024/04/25 05:03:10;;;;;;;3.70;3.40;;;;;;;6.39;100.00;98555.03;6629281;21;20387;-80
2024/04/25 05:05:39;;;;;;;3.83;3.40;;;;;;;6.70;100.00;98556.81;6629023;21;20240;-81
2024/04/25 05:08:12;;;;;;;3.17;2.87;;;;;;;6.96;100.00;98553.84;6586074;21;20232;-80
2024/04/25 05:10:41;;;;;;;3.70;3.33;;;;;;;7.16;100.00;98552.81;6544514;21;20232;-80
2024/04/25 05:13:09;;;;;;;3.47;3.17;;;;;;;7.32;100.00;98552.22;6629220;21;20236;-80
2024/04/25 05:15:38;;;;;;;3.50;3.20;;;;;;;7.63;100.00;98557.31;6541577;21;20228;-80
2024/04/25 05:18:10;;;;;;;3.43;2.83;;;;;;;7.95;100.00;98568.53;6541732;21;20236;-80
2024/04/25 05:20:41;;;;;;;3.33;3.03;;;;;;;8.22;100.00;98574.28;6586156;21;20216;-80
2024/04/25 05:23:16;;;;;;;3.20;2.90;;;;;;;8.45;100.00;98568.16;6582669;21;20324;-80
2024/04/25 05:25:44;;;;;;;3.00;2.80;;;;;;;8.37;100.00;98564.00;6582757;21;20250;-80
2024/04/25 05:28:13;;;;;;;3.47;2.60;;;;;;;8.66;100.00;98567.63;6582541;21;20232;-81
2024/04/25 05:30:41;;;;;;;3.10;2.90;;;;;;;8.77;100.00;98574.81;6583224;21;20595;-81
2024/04/25 05:33:10;;;;;;;3.00;2.70;;;;;;;8.94;100.00;98573.03;6539503;21;20235;-81
2024/04/25 05:35:38;;;;;;;3.00;2.80;;;;;;;9.25;100.00;98571.81;6583616;21;20232;-81
2024/04/25 05:38:12;;;;;;;2.80;2.60;;;;;;;9.26;100.00;98584.94;6670326;21;20258;-81
2024/04/25 05:40:40;;;;;;;3.13;2.67;;;;;;;9.26;100.00;98573.44;6582817;21;20220;-83
2024/04/25 05:43:08;;;;;;;2.87;2.67;;;;;;;8.93;100.00;98579.44;6583086;21;20228;-80
2024/04/25 05:45:41;;;;;;;3.00;2.80;;;;;;;9.19;100.00;98584.25;6584482;21;20231;-81
2024/04/25 05:48:08;;;;;;;2.90;2.70;;;;;;;9.44;100.00;98588.50;6582789;21;20325;-80
2024/04/25 05:50:37;;;;;;;2.47;2.27;;;;;;;9.80;100.00;98584.66;6582223;21;20321;-82
2024/04/25 05:53:07;;;;;;;2.70;2.50;;;;;;;10.06;100.00;98584.06;6626023;21;20228;-80
2024/04/25 05:55:37;;;;;;;2.60;2.40;;;;;;;10.16;100.00;98592.28;6581333;21;20232;-81
2024/04/25 05:58:10;;;;;;;2.87;2.40;;;;;;;10.28;100.00;98586.84;6584859;21;20333;-81
2024/04/25 06:00:38;;;;;;;2.77;2.57;;;;;;;10.46;100.00;98591.97;6541200;21;20292;-81
2024/04/25 06:03:08;;;;;;;2.33;2.10;;;;;;;10.35;100.00;98588.34;6583836;21;20318;-81
2024/04/25 06:05:38;;;;;;;2.40;2.20;;;;;;;10.70;100.00;98589.91;6583396;21;20224;-82
2024/04/25 06:08:08;;;;;;;2.20;2.00;;;;;;;10.72;100.00;98591.31;6542429;21;20270;-82
2024/04/25 06:10:36;;;;;;;1.93;1.83;;;;;;;10.81;100.00;98603.25;6583410;21;20240;-81
2024/04/25 06:13:05;;;;;;;2.97;2.20;;;;;;;10.53;100.00;98598.81;6583906;21;20270;-81
2024/04/25 06:15:33;;;;;;;2.10;2.00;;;;;;;10.52;100.00;98593.69;6627705;21;20784;-81
2024/04/25 06:18:02;;;;;;;2.23;1.87;;;;;;;10.54;100.00;98595.03;6583248;21;20236;-82
2024/04/25 06:20:31;;;;;;;1.80;1.70;;;;;;;10.48;100.00;98597.91;6540557;21;20232;-80
2024/04/25 06:23:00;;;;;;;2.10;1.97;;;;;;;10.30;100.00;98601.63;6628596;21;20678;-79
2024/04/25 06:25:28;;;;;;;2.10;1.90;;;;;;;10.41;100.00;98606.09;6583097;21;20721;-82
2024/04/25 06:27:57;;;;;;;2.27;1.70;;;;;;;10.52;100.00;98607.88;6539728;21;20232;-81
2024/04/25 06:30:25;;;;;;;1.90;1.70;;;;;;;10.85;100.00;98595.50;6582052;21;20232;-83
2024/04/25 06:32:53;;;;;;;1.60;1.50;;;;;;;11.06;100.00;98602.78;6627266;21;20750;-81
2024/04/25 06:35:21;;;;;;;1.93;1.73;;;;;;;11.36;100.00;98610.41;6583325;21;20236;-81
2024/04/25 06:37:48;;;;;;;1.40;1.30;;;;;;;11.39;100.00;98608.03;6541529;21;20240;-81
2024/04/25 06:40:16;;;;;;;1.60;1.50;;;;;;;11.59;100.00;98617.41;6541787;21;20240;-82
2024/04/25 06:42:44;;;;;;;2.70;1.50;;;;;;;11.68;100.00;98605.97;6542078;21;20281;-81
2024/04/25 06:45:21;;;;;;;1.50;1.40;;;;;;;11.58;100.00;98613.91;6584959;21;20256;-81
2024/04/25 06:47:48;;;;;;;2.10;1.63;;;;;;;11.64;100.00;98606.72;6588412;21;20262;-80
2024/04/25 06:50:16;;;;;;;1.50;1.40;;;;;;;11.33;100.00;98613.59;6541556;21;20291;-80
2024/04/25 06:52:44;;;;;;;1.30;1.20;;;;;;;11.39;100.00;98617.94;6585566;21;20288;-80
2024/04/25 06:55:12;;;;;;;1.60;1.20;;;;;;;11.47;100.00;98615.66;6542454;21;20243;-80
2024/04/25 06:57:40;;;;;;;1.40;1.30;;;;;;;11.46;100.00;98614.03;6541857;21;20228;-81
2024/04/25 07:00:08;;;;;;;2.40;1.20;;;;;;;11.54;100.00;98611.97;6585367;21;20231;-81
2024/04/25 07:02:37;;;;;;;3.07;1.30;;;;;;;11.30;100.00;98608.72;6542561;21;20268;-80
2024/04/25 07:05:05;;;;;;;1.50;1.10;;;;;;;11.49;100.00;98607.34;6584955;21;20332;-81
2024/04/25 07:07:33;;;;;;;1.60;1.30;;;;;;;11.64;100.00;98610.22;6541837;21;20228;-80
2024/04/25 07:10:00;;;;;;;1.50;1.40;;;;;;;11.96;100.00;98621.06;6584348;21;20373;-80
2024/04/25 07:12:31;;;;;;;1.53;1.03;;;;;;;12.23;100.00;98619.19;6584370;21;20232;-81
2024/04/25 07:15:04;;;;;;;1.30;1.20;;;;;;;12.51;100.00;98619.97;6628084;21;20325;-81
2024/04/25 07:17:33;;;;;;;1.30;1.20;;;;;;;12.85;100.00;98610.56;6587039;21;20232;-80
2024/04/25 07:20:01;;;;;;;1.60;1.00;;;;;;;12.71;100.00;98617.44;6584173;21;20263;-81
2024/04/25 07:22:29;;;;;;;1.20;1.10;;;;;;;12.47;99.74;98619.66;6541250;21;20271;-81
2024/04/25 07:24:58;;;;;;;1.20;1.13;;;;;;;12.55;100.00;98626.47;6584698;21;20268;-81
2024/04/25 07:27:25;;;;;;;1.47;1.20;;;;;;;12.46;100.00;98622.63;6627754;21;20224;-80
2024/04/25 07:29:52;;;;;;;1.33;0.93;;;;;;;12.33;100.00;98627.34;6583951;21;20259;-80
2024/04/25 07:32:20;;;;;;;1.30;1.20;;;;;;;12.28;98.57;98616.53;6626242;21;20270;-79
2024/04/25 07:34:47;;;;;;;1.53;1.20;;;;;;;12.39;98.64;98620.16;6540548;21;20245;-81
2024/04/25 07:37:15;;;;;;;2.17;1.07;;;;;;;12.31;97.79;98616.06;6583757;21;20233;-80
2024/04/25 07:39:42;;;;;;;2.33;1.30;;;;;;;12.03;98.67;98616.31;6583207;21;20259;-81
2024/04/25 07:42:14;;;;;;;1.43;1.10;;;;;;;11.90;100.00;98619.38;6627903;21;20223;-81
2024/04/25 07:44:42;;;;;;;1.43;1.30;;;;;;;11.70;97.53;98611.91;6584966;21;20326;-81
2024/04/25 07:47:10;;;;;;;1.33;1.00;;;;;;;11.71;99.34;98610.03;6627600;21;20283;-81
2024/04/25 07:49:37;;;;;;;1.37;1.00;;;;;;;11.88;100.00;98616.97;6583651;21;20311;-81
2024/04/25 07:52:08;;;;;;;2.83;1.13;;;;;;;11.78;100.00;98614.16;6584950;21;20223;-81
2024/04/25 07:54:36;;;;;;;1.03;1.00;;;;;;;12.13;96.62;98604.88;6582407;21;20242;-80
2024/04/25 07:57:04;;;;;;;0.90;0.83;;;;;;;12.60;95.90;98604.97;6582884;21;20267;-81
2024/04/25 07:59:33;;;;;;;1.43;1.00;;;;;;;12.90;96.88;98610.59;6583540;21;20264;-79
2024/04/25 08:02:01;;;;;;;1.63;1.00;;;;;;;12.85;95.07;98605.19;6627519;21;20221;-80
2024/04/25 08:04:28;;;;;;;1.10;1.00;;;;;;;12.91;94.18;98608.72;6583397;21;20321;-80
2024/04/25 08:06:56;;;;;;;0.90;0.90;;;;;;;12.46;90.33;98606.50;6583211;21;20260;-79
2024/04/25 08:09:24;;;;;;;1.07;1.00;;;;;;;12.62;88.19;98609.06;6583541;21;20228;-81
2024/04/25 08:11:54;;;;;;;0.80;0.70;;;;;;;12.28;89.13;98602.31;6627109;21;20220;-79
2024/04/25 08:14:22;;;;;;;1.30;1.00;;;;;;;12.71;89.37;98618.25;6582594;21;20236;-79
2024/04/25 08:16:49;;;;;;;1.00;0.90;;;;;;;13.00;88.96;98612.53;6583392;21;20224;-80
2024/04/25 08:19:19;;;;;;;0.80;0.80;;;;;;;13.06;85.10;98603.44;6542026;21;20713;-80
2024/04/25 08:21:48;;;;;;;0.90;0.77;;;;;;;13.18;84.09;98602.19;6583368;21;20229;-80
2024/04/25 08:24:17;;;;;;;1.10;0.83;;;;;;;13.15;82.59;98607.28;6584015;21;20270;-80
2024/04/25 08:26:45;;;;;;;0.97;0.90;;;;;;;13.33;81.63;98608.72;6584026;21;20241;-81
2024/04/25 08:29:13;;;;;;;0.93;0.90;;;;;;;13.35;80.94;98603.88;6627459;21;20255;-80
2024/04/25 08:31:40;;;;;;;0.80;0.70;;;;;;;13.11;79.43;98600.81;6581626;21;20286;-80
2024/04/25 08:34:07;;;;;;;0.73;0.70;;;;;;;13.29;79.19;98596.88;6539736;21;20663;-80
2024/04/25 08:36:38;;;;;;;0.60;0.60;;;;;;;13.12;78.96;98597.03;6582422;21;20270;-80
2024/04/25 08:39:05;;;;;;;1.07;0.60;;;;;;;12.91;79.87;98595.28;6626611;21;20236;-80
2024/04/25 08:41:34;;;;;;;1.43;0.90;;;;;;;12.77;78.82;98600.28;6627133;21;20248;-79
2024/04/25 08:44:03;;;;;;;0.70;0.60;;;;;;;13.06;79.34;98587.31;6581730;21;20780;-80
2024/04/25 08:46:31;;;;;;;0.93;0.80;;;;;;;13.05;77.23;98591.06;6578375;21;20315;-80
2024/04/25 08:49:00;;;;;;;1.03;0.70;;;;;;;13.10;77.41;98589.22;6538848;21;20237;-80
2024/04/25 08:51:28;;;;;;;1.17;0.73;;;;;;;13.33;78.09;98603.34;6581594;21;20336;-80
2024/04/25 08:53:59;;;;;;;0.70;0.60;;;;;;;13.54;76.41;98594.25;6580482;21;20245;-81
2024/04/25 08:56:32;;;;;;;0.77;0.70;;;;;;;13.34;76.16;98594.19;6624963;21;20308;-81
2024/04/25 08:59:00;;;;;;;0.60;0.60;;;;;;;13.42;76.21;98593.69;6577505;21;20234;-81
2024/04/25 09:01:27;;;;;;;0.80;0.70;;;;;;;13.39;76.27;98592.31;6579580;21;20241;-82
2024/04/25 09:03:57;;;;;;;0.70;0.70;;;;;;;13.31;76.10;98594.69;6535187;21;20976;-80
2024/04/25 09:06:25;;;;;;;0.53;0.53;;;;;;;13.36;77.27;98594.72;6579292;21;20230;-81
2024/04/25 09:08:55;;;;;;;0.67;0.60;;;;;;;13.27;75.17;98599.00;6582158;21;20929;-79
2024/04/25 09:11:23;;;;;;;0.60;0.60;;;;;;;13.33;74.15;98601.47;6578063;21;20274;-79
2024/04/25 09:13:55;;;;;;;0.60;0.60;;;;;;;13.28;75.88;98601.44;6578256;21;20229;-82
2024/04/25 09:16:24;;;;;;;1.13;0.60;;;;;;;13.12;73.12;98597.84;6623722;21;20802;-81
2024/04/25 09:18:53;;;;;;;0.90;0.67;;;;;;;13.30;73.05;98593.09;6537465;21;20290;-81
2024/04/25 09:21:21;;;;;;;1.00;0.53;;;;;;;13.47;73.59;98599.91;6539244;21;20255;-82
2024/04/25 09:23:48;;;;;;;1.03;0.60;;;;;;;13.51;75.06;98595.63;6582604;21;20685;-83
2024/04/25 09:26:17;;;;;;;1.57;0.70;;;;;;;13.44;74.30;98594.22;6577653;21;20241;-82
2024/04/25 09:28:45;;;;;;;1.23;0.80;;;;;;;13.61;74.42;98597.53;6578357;21;20225;-83
2024/04/25 09:31:14;;;;;;;1.20;0.80;;;;;;;13.87;75.69;98599.22;6538957;21;20286;-82
2024/04/25 09:33:42;;;;;;;2.00;0.90;;;;;;;14.15;75.78;98602.50;6582581;21;20229;-84
2024/04/25 09:36:12;;;;;;;1.37;0.70;;;;;;;14.20;74.27;98589.84;6579497;21;20335;-82
2024/04/25 09:38:40;;;;;;;0.97;0.47;;;;;;;14.48;73.69;98589.34;6581414;21;20221;-84
2024/04/25 09:41:08;;;;;;;0.67;0.60;;;;;;;14.34;72.46;98592.81;6626098;21;20239;-82
2024/04/25 09:43:39;;;;;;;0.93;0.60;;;;;;;14.43;71.65;98591.25;6536781;21;20274;-83
2024/04/25 09:46:15;;;;;;;0.67;0.60;;;;;;;14.16;67.85;98585.25;6581173;21;20264;-83
2024/04/25 09:48:48;;;;;;;0.90;0.60;;;;;;;14.10;69.45;98589.84;6626168;21;20222;-82
2024/04/25 09:51:25;;;;;;;0.77;0.60;;;;;;;13.91;68.05;98591.41;6628066;21;20245;-83
2024/04/25 09:53:58;;;;;;;0.60;0.50;;;;;;;14.02;66.66;98591.19;6627670;21;20258;-82
2024/04/25 09:56:29;;;;;;;2.17;0.80;;;;;;;14.61;67.12;98579.09;6583682;21;20726;-84
2024/04/25 09:59:04;;;;;;;0.60;0.60;;;;;;;14.47;67.01;98585.03;6626833;21;20261;-82
2024/04/25 10:01:33;;;;;;;1.60;0.80;;;;;;;14.51;67.29;98571.84;6627872;21;20229;-81
2024/04/25 10:04:02;;;;;;;0.67;0.60;;;;;;;14.59;67.89;98581.28;6583274;21;20262;-80
2024/04/25 10:06:30;;;;;;;0.63;0.60;;;;;;;14.41;66.13;98572.66;6583281;21;20253;-81
2024/04/25 10:08:58;;;;;;;0.80;0.60;;;;;;;14.83;66.49;98571.53;6542277;21;20228;-83
2024/04/25 10:11:29;;;;;;;1.57;0.80;;;;;;;14.84;65.79;98573.94;6585366;21;20245;-81
2024/04/25 10:14:00;;;;;;;1.03;0.57;;;;;;;14.85;67.52;98570.19;6586741;21;20237;-82
2024/04/25 10:16:28;;;;;;;0.93;0.60;;;;;;;15.46;65.30;98575.38;6542822;21;20286;-83
2024/04/25 10:18:56;;;;;;;1.20;0.60;;;;;;;15.79;63.56;98571.22;6586060;21;20238;-80
2024/04/25 10:21:24;;;;;;;1.67;1.00;;;;;;;15.84;63.80;98568.47;6585382;21;20223;-82
2024/04/25 10:24:05;;;;;;;0.50;0.50;;;;;;;16.18;64.30;98563.94;6629028;21;20273;-81
2024/04/25 10:26:37;;;;;;;0.93;0.70;;;;;;;15.47;61.49;98560.81;6585433;21;20287;-81
2024/04/25 10:29:06;;;;;;;1.00;0.70;;;;;;;15.47;59.78;98557.31;6584503;21;20275;-82
2024/04/25 10:31:40;;;;;;;1.03;0.80;;;;;;;15.39;59.54;98559.50;6624527;21;20265;-80
2024/04/25 10:34:13;;;;;;;1.40;0.60;;;;;;;15.83;57.92;98559.56;6585531;21;20267;-81
2024/04/25 10:36:44;;;;;;;0.70;0.70;;;;;;;16.54;59.49;98552.84;6585384;21;20241;-81
2024/04/25 10:39:14;;;;;;;1.13;0.60;;;;;;;16.67;56.21;98552.19;6540644;21;20236;-81
2024/04/25 10:41:43;;;;;;;0.90;0.50;;;;;;;16.23;54.57;98561.22;6629168;21;20228;-80
2024/04/25 10:44:13;;;;;;;2.23;0.60;;;;;;;16.64;55.08;98552.78;6542661;21;20271;-82
2024/04/25 10:46:41;;;;;;;0.80;0.50;;;;;;;16.33;54.13;98544.06;6586703;21;20240;-81
2024/04/25 10:49:09;;;;;;;0.60;0.50;;;;;;;15.76;53.51;98539.38;6584164;21;20252;-81
2024/04/25 10:51:42;;;;;;;0.60;0.50;;;;;;;16.20;56.28;98544.72;6582468;21;20275;-81
2024/04/25 10:54:13;;;;;;;0.70;0.50;;;;;;;16.79;56.89;98543.72;6585138;21;20271;-81
2024/04/25 10:56:45;;;;;;;1.53;0.63;;;;;;;17.21;55.98;98546.50;6583146;21;20989;-82
2024/04/25 10:59:12;;;;;;;0.67;0.50;;;;;;;17.47;56.82;98544.28;6581066;21;20228;-81
2024/04/25 11:01:40;;;;;;;0.50;0.50;;;;;;;17.22;55.78;98547.31;6581683;21;20224;-81
2024/04/25 11:04:08;;;;;;;1.63;0.60;;;;;;;15.77;59.94;98546.41;6582185;21;20251;-82
2024/04/25 11:06:41;;;;;;;0.73;0.60;;;;;;;15.71;59.36;98542.09;6585676;21;20764;-81
2024/04/25 11:09:13;;;;;;;1.97;0.60;;;;;;;15.88;58.75;98552.53;6584615;21;20326;-81
2024/04/25 11:11:41;;;;;;;0.40;0.40;;;;;;;16.23;59.90;98549.59;6628993;21;20220;-81
2024/04/25 11:14:09;;;;;;;0.87;0.50;;;;;;;16.60;58.41;98540.91;6584407;21;20724;-81
2024/04/25 11:16:37;;;;;;;0.73;0.60;;;;;;;16.14;56.05;98541.25;6586066;21;20275;-81
2024/04/25 11:19:06;;;;;;;0.53;0.50;;;;;;;16.09;53.56;98541.31;6584408;21;20785;-81
2024/04/25 11:21:46;;;;;;;0.57;0.40;;;;;;;15.70;56.02;98535.06;6587816;21;20294;-81
2024/04/25 11:24:19;;;;;;;0.60;0.40;;;;;;;16.03;57.37;98537.03;6541920;21;20227;-81
2024/04/25 11:26:47;;;;;;;0.70;0.60;;;;;;;16.22;56.56;98534.44;6582895;21;20352;-81
2024/04/25 11:29:15;;;;;;;0.57;0.50;;;;;;;16.35;54.02;98536.50;6584125;21;20276;-81
2024/04/25 11:31:43;;;;;;;0.40;0.30;;;;;;;16.51;51.83;98538.00;6584370;21;20232;-80
2024/04/25 11:34:21;;;;;;;2.70;0.57;;;;;;;16.63;52.04;98534.94;6584301;21;20299;-81
2024/04/25 11:37:04;;;;;;;0.60;0.50;;;;;;;16.28;53.56;98541.44;6584584;21;20228;-80
2024/04/25 11:39:33;;;;;;;0.73;0.50;;;;;;;16.07;54.23;98538.06;6583236;21;20759;-81
2024/04/25 11:42:06;;;;;;;0.50;0.50;;;;;;;15.94;58.34;98532.50;6543006;21;20299;-81
2024/04/25 11:44:37;;;;;;;1.03;0.53;;;;;;;16.43;55.63;98537.78;6626997;21;20266;-82
2024/04/25 11:47:05;;;;;;;0.53;0.50;;;;;;;15.79;56.60;98534.22;6582768;21;20236;-81